This is the latest recevied weather packets stored in our database for station/object 5B4APJ-13. If no packets are shown the sender has not sent any weather packets the latest 10 day(s).
| Time | Temp. | Humidity | Pressure | Rain* | Wind** | Luminosity | Snow |
|---|---|---|---|---|---|---|---|
| 1777539429 | 22.22° C | 56% | 1016.3 hPa | 0 mm | 4.47 m/s, 100° | 813 W/m² | - |
| 1777539129 | 22.78° C | 59% | 1016.6 hPa | 0 mm | 2.24 m/s, 127° | 814 W/m² | - |
| 1777538828 | 22.22° C | 58% | 1016.4 hPa | 0 mm | 3.58 m/s, 178° | 801 W/m² | - |
| 1777538529 | 22.22° C | 58% | 1016.4 hPa | 0 mm | 2.68 m/s, 136° | 812 W/m² | - |
| 1777538229 | 22.78° C | 55% | 1016.5 hPa | 0 mm | 4.47 m/s, 114° | 797 W/m² | - |
| 1777537929 | 22.78° C | 56% | 1016.4 hPa | 0 mm | 3.13 m/s, 72° | 791 W/m² | - |
| 1777537628 | 23.33° C | 53% | 1016.3 hPa | 0 mm | 1.34 m/s, 128° | 786 W/m² | - |
| 1777537329 | 23.33° C | 51% | 1016.5 hPa | 0 mm | 0.89 m/s, 129° | 783 W/m² | - |
| 1777537028 | 22.78° C | 54% | 1016.4 hPa | 0 mm | 2.24 m/s, 245° | 769 W/m² | - |
| 1777536729 | 22.78° C | 54% | 1016.5 hPa | 0 mm | 1.79 m/s, 196° | 766 W/m² | - |
| 1777536428 | 23.33° C | 53% | 1016.4 hPa | 0 mm | 2.68 m/s, 131° | 750 W/m² | - |
| 1777536128 | 23.33° C | 49% | 1016.5 hPa | 0 mm | 1.79 m/s, 229° | 738 W/m² | - |
| 1777535828 | 22.78° C | 52% | 1016.4 hPa | 0 mm | 1.34 m/s, 91° | 736 W/m² | - |
| 1777535528 | 23.33° C | 47% | 1016.7 hPa | 0 mm | 1.34 m/s, 151° | 726 W/m² | - |
| 1777535228 | 23.33° C | 49% | 1016.8 hPa | 0 mm | 1.34 m/s, 200° | 715 W/m² | - |
| 1777534928 | 23.33° C | 47% | 1016.6 hPa | 0 mm | 0.89 m/s, 146° | 701 W/m² | - |
| 1777534628 | 22.78° C | 50% | 1016.4 hPa | 0 mm | 1.34 m/s, 287° | 685 W/m² | - |
| 1777534328 | 23.33° C | 46% | 1016.4 hPa | 0 mm | 3.13 m/s, 82° | 669 W/m² | - |
| 1777534028 | 23.33° C | 47% | 1016.6 hPa | 0 mm | 1.34 m/s, 168° | 656 W/m² | - |
| 1777533728 | 22.78° C | 49% | 1016.6 hPa | 0 mm | 1.34 m/s, 98° | 641 W/m² | - |
| 1777533428 | 23.33° C | 49% | 1016.4 hPa | 0 mm | 1.79 m/s, 188° | 627 W/m² | - |
| 1777533128 | 22.78° C | 49% | 1016.4 hPa | 0 mm | 1.34 m/s, 140° | 609 W/m² | - |
| 1777532828 | 22.78° C | 53% | 1016.3 hPa | 0 mm | 2.24 m/s, 89° | 588 W/m² | - |
| 1777532528 | 22.22° C | 55% | 1016.1 hPa | 0 mm | 1.34 m/s, 100° | 577 W/m² | - |
| 1777532228 | 21.67° C | 57% | 1016.4 hPa | 0 mm | 1.34 m/s, 121° | 562 W/m² | - |
* Rain latest hour (hover to see other rain measurements)
** Current wind speed in m/s (hover to see current wind gust speed)